Canas, Costa Rica
Current Conditions -  °F | °C
As of 3:00 PM on Wednesday 22 Oct 2014 (Local Time) from MRLB Reporting Station
Rain Showers Rain Showers  
Wind Chill: 81°   Ceiling: 12000
Heat Index: 85°   Visibility: 6mi
Dew Point: 73°   Wind: 3mph
Humidity: 79%   Direction: 130°SE
Pressure: 29.81"   Gusts: NA
Location:  10.43°N, 85.1°W
Report Text: MRLB 222100Z 13003KT 9999 VCSH SCT015 BKN120 27/23 A2981
Loading
Personal Weather Stations






























Interactive Weather Map
Tropical Storm Tracking
New forecast layout! Learn more

10-Day Weather Forecast

Advertisements
Track Severe Weather on mobile